sensor_id;sensor_type;location;lat;lon;timestamp;pressure;altitude;pressure_sealevel;temperature;humidity
28448;BME280;15675;52.870;-1.416;2024-02-26T00:00:31;99774.63;;;5.18;100.00
28448;BME280;15675;52.870;-1.416;2024-02-26T00:02:57;99780.50;;;5.03;100.00
28448;BME280;15675;52.870;-1.416;2024-02-26T00:05:23;99786.38;;;4.96;100.00
28448;BME280;15675;52.870;-1.416;2024-02-26T00:07:48;99782.03;;;4.90;100.00
28448;BME280;15675;52.870;-1.416;2024-02-26T00:10:14;99786.72;;;5.25;100.00
28448;BME280;15675;52.870;-1.416;2024-02-26T00:12:40;99793.50;;;5.20;100.00
28448;BME280;15675;52.870;-1.416;2024-02-26T00:15:06;99787.28;;;4.98;100.00
28448;BME280;15675;52.870;-1.416;2024-02-26T00:17:32;99796.03;;;5.14;100.00
28448;BME280;15675;52.870;-1.416;2024-02-26T00:19:58;99814.34;;;5.42;100.00
28448;BME280;15675;52.870;-1.416;2024-02-26T00:22:23;99807.91;;;5.04;100.00
28448;BME280;15675;52.870;-1.416;2024-02-26T00:24:49;99813.03;;;5.01;100.00
28448;BME280;15675;52.870;-1.416;2024-02-26T00:27:14;99814.66;;;4.96;100.00
28448;BME280;15675;52.870;-1.416;2024-02-26T00:29:40;99830.25;;;5.08;100.00
28448;BME280;15675;52.870;-1.416;2024-02-26T00:32:05;99835.56;;;5.21;100.00
28448;BME280;15675;52.870;-1.416;2024-02-26T00:34:31;99831.19;;;5.12;100.00
28448;BME280;15675;52.870;-1.416;2024-02-26T00:36:57;99841.38;;;5.06;100.00
28448;BME280;15675;52.870;-1.416;2024-02-26T00:39:22;99840.66;;;5.16;100.00
28448;BME280;15675;52.870;-1.416;2024-02-26T00:41:48;99843.03;;;4.99;100.00
28448;BME280;15675;52.870;-1.416;2024-02-26T00:44:13;99856.69;;;4.95;100.00
28448;BME280;15675;52.870;-1.416;2024-02-26T00:46:39;99857.72;;;5.08;100.00
28448;BME280;15675;52.870;-1.416;2024-02-26T00:49:04;99853.47;;;5.13;100.00
28448;BME280;15675;52.870;-1.416;2024-02-26T00:51:30;99854.44;;;5.23;100.00
28448;BME280;15675;52.870;-1.416;2024-02-26T00:53:56;99856.75;;;4.99;100.00
28448;BME280;15675;52.870;-1.416;2024-02-26T00:56:21;99858.53;;;5.05;100.00
28448;BME280;15675;52.870;-1.416;2024-02-26T00:58:47;99868.88;;;5.10;100.00
28448;BME280;15675;52.870;-1.416;2024-02-26T01:01:13;99882.72;;;5.21;100.00
28448;BME280;15675;52.870;-1.416;2024-02-26T01:03:38;99877.41;;;5.07;100.00
28448;BME280;15675;52.870;-1.416;2024-02-26T01:06:04;99884.53;;;5.27;100.00
28448;BME280;15675;52.870;-1.416;2024-02-26T01:08:30;99897.31;;;5.21;100.00
28448;BME280;15675;52.870;-1.416;2024-02-26T01:10:56;99892.38;;;5.36;100.00
28448;BME280;15675;52.870;-1.416;2024-02-26T01:13:22;99895.91;;;5.46;100.00
28448;BME280;15675;52.870;-1.416;2024-02-26T01:15:48;99905.09;;;5.25;100.00
28448;BME280;15675;52.870;-1.416;2024-02-26T01:18:13;99904.09;;;5.15;100.00
28448;BME280;15675;52.870;-1.416;2024-02-26T01:20:39;99919.34;;;5.01;100.00
28448;BME280;15675;52.870;-1.416;2024-02-26T01:23:04;99919.28;;;4.97;100.00
28448;BME280;15675;52.870;-1.416;2024-02-26T01:25:29;99923.38;;;4.81;100.00
28448;BME280;15675;52.870;-1.416;2024-02-26T01:27:55;99927.00;;;4.95;100.00
28448;BME280;15675;52.870;-1.416;2024-02-26T01:30:21;99926.03;;;4.89;100.00
28448;BME280;15675;52.870;-1.416;2024-02-26T01:32:46;99941.66;;;5.01;100.00
28448;BME280;15675;52.870;-1.416;2024-02-26T01:35:12;99946.72;;;4.96;100.00
28448;BME280;15675;52.870;-1.416;2024-02-26T01:37:38;99952.78;;;5.00;100.00
28448;BME280;15675;52.870;-1.416;2024-02-26T01:40:03;99968.69;;;4.74;100.00
28448;BME280;15675;52.870;-1.416;2024-02-26T01:42:30;99958.59;;;4.87;100.00
28448;BME280;15675;52.870;-1.416;2024-02-26T01:45:00;99964.81;;;5.03;100.00
28448;BME280;15675;52.870;-1.416;2024-02-26T01:47:27;99956.63;;;4.70;100.00
28448;BME280;15675;52.870;-1.416;2024-02-26T01:49:54;99963.06;;;5.00;100.00
28448;BME280;15675;52.870;-1.416;2024-02-26T01:52:20;99975.56;;;4.75;100.00
28448;BME280;15675;52.870;-1.416;2024-02-26T01:54:47;99976.44;;;4.77;100.00
28448;BME280;15675;52.870;-1.416;2024-02-26T01:57:13;99985.00;;;4.76;100.00
28448;BME280;15675;52.870;-1.416;2024-02-26T01:59:39;99986.78;;;4.80;100.00
28448;BME280;15675;52.870;-1.416;2024-02-26T02:02:07;99990.47;;;4.96;100.00
28448;BME280;15675;52.870;-1.416;2024-02-26T02:04:36;99990.25;;;4.82;100.00
28448;BME280;15675;52.870;-1.416;2024-02-26T02:07:02;99999.03;;;4.97;100.00
28448;BME280;15675;52.870;-1.416;2024-02-26T02:09:28;99990.50;;;4.99;100.00
28448;BME280;15675;52.870;-1.416;2024-02-26T02:11:54;99995.38;;;4.81;100.00
28448;BME280;15675;52.870;-1.416;2024-02-26T02:14:20;100011.53;;;4.74;100.00
28448;BME280;15675;52.870;-1.416;2024-02-26T02:16:46;100004.31;;;5.06;100.00
28448;BME280;15675;52.870;-1.416;2024-02-26T02:19:12;100001.72;;;5.03;100.00
28448;BME280;15675;52.870;-1.416;2024-02-26T02:21:38;100007.81;;;5.11;100.00
28448;BME280;15675;52.870;-1.416;2024-02-26T02:24:04;100028.97;;;4.92;100.00
28448;BME280;15675;52.870;-1.416;2024-02-26T02:26:30;100021.31;;;4.95;100.00
28448;BME280;15675;52.870;-1.416;2024-02-26T02:28:56;100022.00;;;4.84;100.00
28448;BME280;15675;52.870;-1.416;2024-02-26T02:31:22;100027.44;;;5.03;100.00
28448;BME280;15675;52.870;-1.416;2024-02-26T02:33:48;100030.56;;;4.83;100.00
28448;BME280;15675;52.870;-1.416;2024-02-26T02:36:14;100033.72;;;5.22;100.00
28448;BME280;15675;52.870;-1.416;2024-02-26T02:38:49;100033.53;;;5.10;100.00
28448;BME280;15675;52.870;-1.416;2024-02-26T02:41:18;100044.59;;;5.04;100.00
28448;BME280;15675;52.870;-1.416;2024-02-26T02:43:44;100044.69;;;5.10;100.00
28448;BME280;15675;52.870;-1.416;2024-02-26T02:46:09;100038.66;;;5.10;100.00
28448;BME280;15675;52.870;-1.416;2024-02-26T02:48:37;100066.56;;;4.83;100.00
28448;BME280;15675;52.870;-1.416;2024-02-26T02:51:03;100050.44;;;4.95;100.00
28448;BME280;15675;52.870;-1.416;2024-02-26T02:53:28;100058.75;;;5.34;100.00
28448;BME280;15675;52.870;-1.416;2024-02-26T02:55:54;100065.72;;;4.84;100.00
28448;BME280;15675;52.870;-1.416;2024-02-26T02:58:19;100061.50;;;4.90;100.00
28448;BME280;15675;52.870;-1.416;2024-02-26T03:00:45;100075.34;;;4.96;100.00
28448;BME280;15675;52.870;-1.416;2024-02-26T03:03:10;100071.88;;;4.96;100.00
28448;BME280;15675;52.870;-1.416;2024-02-26T03:05:36;100074.31;;;4.85;100.00
28448;BME280;15675;52.870;-1.416;2024-02-26T03:08:02;100077.75;;;4.87;100.00
28448;BME280;15675;52.870;-1.416;2024-02-26T03:10:28;100082.00;;;4.85;100.00
28448;BME280;15675;52.870;-1.416;2024-02-26T03:12:54;100095.53;;;4.73;100.00
28448;BME280;15675;52.870;-1.416;2024-02-26T03:15:19;100106.47;;;4.63;100.00
28448;BME280;15675;52.870;-1.416;2024-02-26T03:17:45;100094.66;;;4.73;100.00
28448;BME280;15675;52.870;-1.416;2024-02-26T03:20:10;100119.31;;;4.63;100.00
28448;BME280;15675;52.870;-1.416;2024-02-26T03:22:38;100106.91;;;4.86;100.00
28448;BME280;15675;52.870;-1.416;2024-02-26T03:25:04;100125.03;;;4.46;100.00
28448;BME280;15675;52.870;-1.416;2024-02-26T03:27:30;100122.00;;;4.68;100.00
28448;BME280;15675;52.870;-1.416;2024-02-26T03:29:55;100140.75;;;4.62;100.00
28448;BME280;15675;52.870;-1.416;2024-02-26T03:32:22;100130.88;;;4.85;100.00
28448;BME280;15675;52.870;-1.416;2024-02-26T03:34:47;100133.16;;;4.70;100.00
28448;BME280;15675;52.870;-1.416;2024-02-26T03:37:13;100142.63;;;4.71;100.00
28448;BME280;15675;52.870;-1.416;2024-02-26T03:39:38;100156.03;;;4.56;100.00
28448;BME280;15675;52.870;-1.416;2024-02-26T03:42:04;100129.00;;;4.75;100.00
28448;BME280;15675;52.870;-1.416;2024-02-26T03:44:29;100143.50;;;4.73;100.00
28448;BME280;15675;52.870;-1.416;2024-02-26T03:46:55;100155.50;;;4.72;100.00
28448;BME280;15675;52.870;-1.416;2024-02-26T03:49:21;100155.63;;;4.80;100.00
28448;BME280;15675;52.870;-1.416;2024-02-26T03:51:48;100160.47;;;4.63;100.00
28448;BME280;15675;52.870;-1.416;2024-02-26T03:54:13;100176.38;;;4.88;100.00
28448;BME280;15675;52.870;-1.416;2024-02-26T03:56:39;100157.00;;;5.10;100.00
28448;BME280;15675;52.870;-1.416;2024-02-26T03:59:04;100176.41;;;4.91;100.00
28448;BME280;15675;52.870;-1.416;2024-02-26T04:01:30;100174.84;;;4.97;100.00
28448;BME280;15675;52.870;-1.416;2024-02-26T04:03:56;100173.88;;;4.92;100.00
28448;BME280;15675;52.870;-1.416;2024-02-26T04:06:21;100197.41;;;5.14;100.00
28448;BME280;15675;52.870;-1.416;2024-02-26T04:08:48;100190.34;;;5.02;100.00
28448;BME280;15675;52.870;-1.416;2024-02-26T04:11:14;100187.88;;;5.08;100.00
28448;BME280;15675;52.870;-1.416;2024-02-26T04:13:46;100195.81;;;5.21;100.00
28448;BME280;15675;52.870;-1.416;2024-02-26T04:16:15;100200.72;;;5.08;100.00
28448;BME280;15675;52.870;-1.416;2024-02-26T04:18:41;100201.59;;;5.09;100.00
28448;BME280;15675;52.870;-1.416;2024-02-26T04:21:07;100209.19;;;5.01;100.00
28448;BME280;15675;52.870;-1.416;2024-02-26T04:23:32;100220.63;;;5.18;100.00
28448;BME280;15675;52.870;-1.416;2024-02-26T04:25:58;100220.56;;;5.14;100.00
28448;BME280;15675;52.870;-1.416;2024-02-26T04:28:23;100230.53;;;4.97;100.00
28448;BME280;15675;52.870;-1.416;2024-02-26T04:30:51;100233.28;;;5.05;100.00
28448;BME280;15675;52.870;-1.416;2024-02-26T04:33:17;100248.41;;;4.89;100.00
28448;BME280;15675;52.870;-1.416;2024-02-26T04:35:42;100243.94;;;4.79;100.00
28448;BME280;15675;52.870;-1.416;2024-02-26T04:38:08;100248.56;;;4.98;100.00
28448;BME280;15675;52.870;-1.416;2024-02-26T04:40:33;100249.06;;;4.79;100.00
28448;BME280;15675;52.870;-1.416;2024-02-26T04:42:59;100249.50;;;5.02;100.00
28448;BME280;15675;52.870;-1.416;2024-02-26T04:45:24;100275.91;;;4.92;100.00
28448;BME280;15675;52.870;-1.416;2024-02-26T04:47:50;100270.03;;;4.99;100.00
28448;BME280;15675;52.870;-1.416;2024-02-26T04:50:15;100273.41;;;4.96;100.00
28448;BME280;15675;52.870;-1.416;2024-02-26T04:52:41;100273.38;;;4.95;100.00
28448;BME280;15675;52.870;-1.416;2024-02-26T04:55:07;100276.41;;;4.75;100.00
28448;BME280;15675;52.870;-1.416;2024-02-26T04:57:33;100281.91;;;4.92;100.00
28448;BME280;15675;52.870;-1.416;2024-02-26T04:59:59;100296.19;;;4.78;100.00
28448;BME280;15675;52.870;-1.416;2024-02-26T05:02:24;100287.59;;;4.77;100.00
28448;BME280;15675;52.870;-1.416;2024-02-26T05:04:51;100294.53;;;4.81;100.00
28448;BME280;15675;52.870;-1.416;2024-02-26T05:07:16;100306.38;;;4.73;100.00
28448;BME280;15675;52.870;-1.416;2024-02-26T05:09:45;100297.22;;;4.86;100.00
28448;BME280;15675;52.870;-1.416;2024-02-26T05:12:10;100312.56;;;4.83;100.00
28448;BME280;15675;52.870;-1.416;2024-02-26T05:14:36;100306.03;;;4.97;100.00
28448;BME280;15675;52.870;-1.416;2024-02-26T05:17:01;100319.63;;;4.92;100.00
28448;BME280;15675;52.870;-1.416;2024-02-26T05:19:27;100327.53;;;5.01;100.00
28448;BME280;15675;52.870;-1.416;2024-02-26T05:21:53;100323.72;;;4.82;100.00
28448;BME280;15675;52.870;-1.416;2024-02-26T05:24:18;100347.81;;;4.87;100.00
28448;BME280;15675;52.870;-1.416;2024-02-26T05:26:47;100350.59;;;4.96;100.00
28448;BME280;15675;52.870;-1.416;2024-02-26T05:29:13;100341.81;;;4.87;100.00
28448;BME280;15675;52.870;-1.416;2024-02-26T05:31:39;100369.03;;;4.77;100.00
28448;BME280;15675;52.870;-1.416;2024-02-26T05:34:05;100345.09;;;4.79;100.00
28448;BME280;15675;52.870;-1.416;2024-02-26T05:36:31;100368.06;;;5.13;100.00
28448;BME280;15675;52.870;-1.416;2024-02-26T05:38:59;100367.63;;;4.91;100.00
28448;BME280;15675;52.870;-1.416;2024-02-26T05:41:25;100378.91;;;4.98;100.00
28448;BME280;15675;52.870;-1.416;2024-02-26T05:43:52;100375.31;;;4.90;100.00
28448;BME280;15675;52.870;-1.416;2024-02-26T05:46:19;100381.53;;;5.01;100.00
28448;BME280;15675;52.870;-1.416;2024-02-26T05:48:47;100408.75;;;4.90;100.00
28448;BME280;15675;52.870;-1.416;2024-02-26T05:51:13;100396.72;;;4.90;100.00
28448;BME280;15675;52.870;-1.416;2024-02-26T05:53:38;100400.72;;;5.17;100.00
28448;BME280;15675;52.870;-1.416;2024-02-26T05:56:04;100397.34;;;5.18;100.00
28448;BME280;15675;52.870;-1.416;2024-02-26T05:58:29;100415.97;;;5.06;100.00
28448;BME280;15675;52.870;-1.416;2024-02-26T06:00:55;100409.09;;;5.07;100.00
28448;BME280;15675;52.870;-1.416;2024-02-26T06:03:20;100428.56;;;4.94;100.00
28448;BME280;15675;52.870;-1.416;2024-02-26T06:05:46;100428.94;;;4.73;100.00
28448;BME280;15675;52.870;-1.416;2024-02-26T06:08:11;100438.88;;;4.59;100.00
28448;BME280;15675;52.870;-1.416;2024-02-26T06:10:37;100441.97;;;4.44;100.00
28448;BME280;15675;52.870;-1.416;2024-02-26T06:13:04;100443.47;;;4.36;100.00
28448;BME280;15675;52.870;-1.416;2024-02-26T06:15:29;100475.00;;;4.28;100.00
28448;BME280;15675;52.870;-1.416;2024-02-26T06:17:55;100462.03;;;4.59;100.00
28448;BME280;15675;52.870;-1.416;2024-02-26T06:20:20;100464.31;;;4.46;100.00
28448;BME280;15675;52.870;-1.416;2024-02-26T06:22:46;100481.38;;;4.44;100.00
28448;BME280;15675;52.870;-1.416;2024-02-26T06:25:11;100479.50;;;4.37;100.00
28448;BME280;15675;52.870;-1.416;2024-02-26T06:27:37;100488.59;;;4.24;100.00
28448;BME280;15675;52.870;-1.416;2024-02-26T06:30:03;100491.19;;;4.26;100.00
28448;BME280;15675;52.870;-1.416;2024-02-26T06:32:28;100498.19;;;4.65;100.00
28448;BME280;15675;52.870;-1.416;2024-02-26T06:34:55;100493.34;;;4.42;100.00
28448;BME280;15675;52.870;-1.416;2024-02-26T06:37:20;100497.75;;;4.83;100.00
28448;BME280;15675;52.870;-1.416;2024-02-26T06:39:46;100500.31;;;4.46;100.00
28448;BME280;15675;52.870;-1.416;2024-02-26T06:42:11;100496.72;;;4.40;100.00
28448;BME280;15675;52.870;-1.416;2024-02-26T06:44:37;100500.38;;;4.49;100.00
28448;BME280;15675;52.870;-1.416;2024-02-26T06:47:03;100515.66;;;4.43;100.00
28448;BME280;15675;52.870;-1.416;2024-02-26T06:49:29;100515.66;;;4.43;100.00
28448;BME280;15675;52.870;-1.416;2024-02-26T06:51:56;100521.63;;;4.42;100.00
28448;BME280;15675;52.870;-1.416;2024-02-26T06:54:21;100543.03;;;4.43;100.00
28448;BME280;15675;52.870;-1.416;2024-02-26T06:56:47;100547.00;;;4.63;100.00
28448;BME280;15675;52.870;-1.416;2024-02-26T06:59:12;100540.13;;;4.62;100.00
28448;BME280;15675;52.870;-1.416;2024-02-26T07:01:41;100558.91;;;4.95;100.00
28448;BME280;15675;52.870;-1.416;2024-02-26T07:04:06;100559.25;;;4.40;100.00
28448;BME280;15675;52.870;-1.416;2024-02-26T07:06:32;100554.25;;;4.45;100.00
28448;BME280;15675;52.870;-1.416;2024-02-26T07:08:57;100582.25;;;4.36;100.00
28448;BME280;15675;52.870;-1.416;2024-02-26T07:11:23;100577.28;;;4.75;100.00
28448;BME280;15675;52.870;-1.416;2024-02-26T07:13:48;100575.75;;;4.82;100.00
28448;BME280;15675;52.870;-1.416;2024-02-26T07:16:15;100570.97;;;4.62;100.00
28448;BME280;15675;52.870;-1.416;2024-02-26T07:18:41;100574.69;;;4.74;100.00
28448;BME280;15675;52.870;-1.416;2024-02-26T07:21:06;100578.25;;;4.79;100.00
28448;BME280;15675;52.870;-1.416;2024-02-26T07:23:32;100586.38;;;4.61;100.00
28448;BME280;15675;52.870;-1.416;2024-02-26T07:25:57;100586.63;;;4.72;100.00
28448;BME280;15675;52.870;-1.416;2024-02-26T07:28:24;100589.00;;;4.64;100.00
28448;BME280;15675;52.870;-1.416;2024-02-26T07:30:50;100591.75;;;4.72;100.00
28448;BME280;15675;52.870;-1.416;2024-02-26T07:33:15;100595.34;;;4.77;100.00
28448;BME280;15675;52.870;-1.416;2024-02-26T07:35:41;100602.16;;;4.75;100.00
28448;BME280;15675;52.870;-1.416;2024-02-26T07:38:07;100611.81;;;4.83;100.00
28448;BME280;15675;52.870;-1.416;2024-02-26T07:40:32;100611.75;;;4.82;100.00
28448;BME280;15675;52.870;-1.416;2024-02-26T07:42:57;100628.72;;;4.75;100.00
28448;BME280;15675;52.870;-1.416;2024-02-26T07:45:23;100624.09;;;4.62;100.00
28448;BME280;15675;52.870;-1.416;2024-02-26T07:47:48;100624.97;;;4.62;100.00
28448;BME280;15675;52.870;-1.416;2024-02-26T07:50:14;100629.59;;;4.76;100.00
28448;BME280;15675;52.870;-1.416;2024-02-26T07:52:40;100627.53;;;4.96;100.00
28448;BME280;15675;52.870;-1.416;2024-02-26T07:55:06;100639.56;;;4.97;100.00
28448;BME280;15675;52.870;-1.416;2024-02-26T07:57:32;100640.16;;;4.87;100.00
28448;BME280;15675;52.870;-1.416;2024-02-26T07:59:59;100648.47;;;4.76;100.00
28448;BME280;15675;52.870;-1.416;2024-02-26T08:02:25;100645.53;;;4.96;100.00
28448;BME280;15675;52.870;-1.416;2024-02-26T08:04:50;100650.50;;;4.88;100.00
28448;BME280;15675;52.870;-1.416;2024-02-26T08:07:16;100663.16;;;5.14;100.00
28448;BME280;15675;52.870;-1.416;2024-02-26T08:09:41;100660.06;;;4.94;100.00
28448;BME280;15675;52.870;-1.416;2024-02-26T08:12:07;100670.03;;;5.15;100.00
28448;BME280;15675;52.870;-1.416;2024-02-26T08:14:33;100663.59;;;5.32;100.00
28448;BME280;15675;52.870;-1.416;2024-02-26T08:16:59;100672.78;;;5.23;100.00
28448;BME280;15675;52.870;-1.416;2024-02-26T08:19:26;100671.69;;;5.48;100.00
28448;BME280;15675;52.870;-1.416;2024-02-26T08:21:52;100683.50;;;5.40;100.00
28448;BME280;15675;52.870;-1.416;2024-02-26T08:24:17;100698.03;;;5.36;100.00
28448;BME280;15675;52.870;-1.416;2024-02-26T08:26:43;100709.47;;;5.47;100.00
28448;BME280;15675;52.870;-1.416;2024-02-26T08:29:09;100703.53;;;5.16;100.00
28448;BME280;15675;52.870;-1.416;2024-02-26T08:31:34;100706.78;;;5.44;100.00
28448;BME280;15675;52.870;-1.416;2024-02-26T08:34:03;100709.53;;;5.17;100.00
28448;BME280;15675;52.870;-1.416;2024-02-26T08:36:31;100706.53;;;5.33;100.00
28448;BME280;15675;52.870;-1.416;2024-02-26T08:38:57;100729.53;;;4.94;100.00
28448;BME280;15675;52.870;-1.416;2024-02-26T08:41:22;100715.13;;;5.00;100.00
28448;BME280;15675;52.870;-1.416;2024-02-26T08:43:48;100726.06;;;5.60;100.00
28448;BME280;15675;52.870;-1.416;2024-02-26T08:46:13;100733.97;;;5.68;100.00
28448;BME280;15675;52.870;-1.416;2024-02-26T08:48:39;100735.03;;;5.76;100.00
28448;BME280;15675;52.870;-1.416;2024-02-26T08:51:06;100741.19;;;5.46;100.00
28448;BME280;15675;52.870;-1.416;2024-02-26T08:53:32;100735.13;;;5.81;100.00
28448;BME280;15675;52.870;-1.416;2024-02-26T08:55:58;100742.69;;;5.73;100.00
28448;BME280;15675;52.870;-1.416;2024-02-26T08:58:23;100770.16;;;5.74;100.00
28448;BME280;15675;52.870;-1.416;2024-02-26T09:00:49;100775.28;;;5.73;100.00
28448;BME280;15675;52.870;-1.416;2024-02-26T09:03:14;100780.94;;;5.58;100.00
28448;BME280;15675;52.870;-1.416;2024-02-26T09:05:40;100770.00;;;5.66;100.00
28448;BME280;15675;52.870;-1.416;2024-02-26T09:08:05;100747.72;;;6.03;100.00
28448;BME280;15675;52.870;-1.416;2024-02-26T09:10:31;100747.16;;;6.18;100.00
28448;BME280;15675;52.870;-1.416;2024-02-26T09:12:58;100757.63;;;6.25;100.00
28448;BME280;15675;52.870;-1.416;2024-02-26T09:15:23;100753.19;;;6.17;100.00
28448;BME280;15675;52.870;-1.416;2024-02-26T09:17:49;100765.28;;;6.20;100.00
28448;BME280;15675;52.870;-1.416;2024-02-26T09:20:16;100753.88;;;6.10;100.00
28448;BME280;15675;52.870;-1.416;2024-02-26T09:22:48;100764.47;;;6.24;100.00
28448;BME280;15675;52.870;-1.416;2024-02-26T09:25:14;100769.53;;;6.19;100.00
28448;BME280;15675;52.870;-1.416;2024-02-26T09:27:43;100791.94;;;6.22;100.00
28448;BME280;15675;52.870;-1.416;2024-02-26T09:30:13;100779.78;;;6.16;100.00
28448;BME280;15675;52.870;-1.416;2024-02-26T09:32:39;100781.66;;;6.24;100.00
28448;BME280;15675;52.870;-1.416;2024-02-26T09:35:06;100786.13;;;6.72;100.00
28448;BME280;15675;52.870;-1.416;2024-02-26T09:37:32;100799.81;;;6.68;100.00
28448;BME280;15675;52.870;-1.416;2024-02-26T09:39:58;100806.81;;;6.34;100.00
28448;BME280;15675;52.870;-1.416;2024-02-26T09:42:27;100798.78;;;6.20;100.00
28448;BME280;15675;52.870;-1.416;2024-02-26T09:44:55;100810.25;;;6.33;100.00
28448;BME280;15675;52.870;-1.416;2024-02-26T09:47:26;100804.94;;;6.66;100.00
28448;BME280;15675;52.870;-1.416;2024-02-26T09:49:56;100801.63;;;6.32;100.00
28448;BME280;15675;52.870;-1.416;2024-02-26T09:52:23;100810.16;;;6.30;100.00
28448;BME280;15675;52.870;-1.416;2024-02-26T09:54:49;100824.44;;;6.15;100.00
28448;BME280;15675;52.870;-1.416;2024-02-26T09:57:16;100813.84;;;6.41;100.00
28448;BME280;15675;52.870;-1.416;2024-02-26T09:59:43;100820.84;;;6.47;100.00
28448;BME280;15675;52.870;-1.416;2024-02-26T10:02:14;100833.25;;;6.25;100.00
28448;BME280;15675;52.870;-1.416;2024-02-26T10:04:40;100834.59;;;6.09;100.00
28448;BME280;15675;52.870;-1.416;2024-02-26T10:07:13;100845.50;;;6.35;100.00
28448;BME280;15675;52.870;-1.416;2024-02-26T10:09:39;100850.06;;;6.46;100.00
28448;BME280;15675;52.870;-1.416;2024-02-26T10:12:07;100841.75;;;6.59;100.00
28448;BME280;15675;52.870;-1.416;2024-02-26T10:14:34;100853.50;;;6.86;100.00
28448;BME280;15675;52.870;-1.416;2024-02-26T10:17:00;100836.78;;;7.11;100.00
28448;BME280;15675;52.870;-1.416;2024-02-26T10:19:27;100851.69;;;7.23;100.00
28448;BME280;15675;52.870;-1.416;2024-02-26T10:21:57;100870.34;;;7.11;100.00
28448;BME280;15675;52.870;-1.416;2024-02-26T10:24:24;100853.44;;;6.83;100.00
28448;BME280;15675;52.870;-1.416;2024-02-26T10:26:51;100869.75;;;6.82;100.00
28448;BME280;15675;52.870;-1.416;2024-02-26T10:29:18;100873.31;;;6.87;100.00
28448;BME280;15675;52.870;-1.416;2024-02-26T10:31:44;100871.88;;;7.44;100.00
28448;BME280;15675;52.870;-1.416;2024-02-26T10:34:10;100878.31;;;6.79;100.00
28448;BME280;15675;52.870;-1.416;2024-02-26T10:36:36;100882.56;;;6.77;100.00
28448;BME280;15675;52.870;-1.416;2024-02-26T10:39:03;100883.19;;;7.08;100.00
28448;BME280;15675;52.870;-1.416;2024-02-26T10:41:30;100874.44;;;7.42;100.00
28448;BME280;15675;52.870;-1.416;2024-02-26T10:43:55;100879.38;;;6.89;100.00
28448;BME280;15675;52.870;-1.416;2024-02-26T10:46:21;100881.47;;;7.07;100.00
28448;BME280;15675;52.870;-1.416;2024-02-26T10:48:50;100875.78;;;7.25;100.00
28448;BME280;15675;52.870;-1.416;2024-02-26T10:51:20;100875.75;;;7.68;99.94
28448;BME280;15675;52.870;-1.416;2024-02-26T10:53:49;100872.59;;;7.37;100.00
28448;BME280;15675;52.870;-1.416;2024-02-26T10:56:20;100879.97;;;7.63;98.77
28448;BME280;15675;52.870;-1.416;2024-02-26T10:58:47;100879.28;;;7.73;98.68
28448;BME280;15675;52.870;-1.416;2024-02-26T11:01:13;100882.56;;;7.64;96.49
28448;BME280;15675;52.870;-1.416;2024-02-26T11:03:38;100907.03;;;7.83;96.18
28448;BME280;15675;52.870;-1.416;2024-02-26T11:06:06;100883.50;;;7.69;95.95
28448;BME280;15675;52.870;-1.416;2024-02-26T11:08:32;100893.66;;;7.58;95.34
28448;BME280;15675;52.870;-1.416;2024-02-26T11:10:58;100917.69;;;7.53;96.36
28448;BME280;15675;52.870;-1.416;2024-02-26T11:13:27;100904.75;;;7.53;97.72
28448;BME280;15675;52.870;-1.416;2024-02-26T11:15:55;100951.03;;;7.42;96.53
28448;BME280;15675;52.870;-1.416;2024-02-26T11:18:23;100923.59;;;7.47;97.73
28448;BME280;15675;52.870;-1.416;2024-02-26T11:20:52;100914.88;;;7.42;97.50
28448;BME280;15675;52.870;-1.416;2024-02-26T11:23:20;100935.25;;;7.28;97.85
28448;BME280;15675;52.870;-1.416;2024-02-26T11:25:45;100944.03;;;6.97;98.78
28448;BME280;15675;52.870;-1.416;2024-02-26T11:28:15;100961.75;;;7.19;99.18
28448;BME280;15675;52.870;-1.416;2024-02-26T11:30:46;100944.63;;;7.67;98.16
28448;BME280;15675;52.870;-1.416;2024-02-26T11:33:13;100924.31;;;7.40;97.10
28448;BME280;15675;52.870;-1.416;2024-02-26T11:35:40;100951.59;;;7.27;97.37
28448;BME280;15675;52.870;-1.416;2024-02-26T11:38:06;100959.94;;;7.15;99.53
28448;BME280;15675;52.870;-1.416;2024-02-26T11:40:33;100959.69;;;7.44;99.90
28448;BME280;15675;52.870;-1.416;2024-02-26T11:42:59;100949.38;;;7.90;99.57
28448;BME280;15675;52.870;-1.416;2024-02-26T11:48:16;100965.63;;;7.40;94.91
28448;BME280;15675;52.870;-1.416;2024-02-26T11:50:55;100949.31;;;7.87;94.20
28448;BME280;15675;52.870;-1.416;2024-02-26T11:53:31;100950.59;;;8.61;92.02
28448;BME280;15675;52.870;-1.416;2024-02-26T11:58:45;100955.97;;;7.74;88.73
28448;BME280;15675;52.870;-1.416;2024-02-26T12:01:35;100966.56;;;7.89;87.40
28448;BME280;15675;52.870;-1.416;2024-02-26T12:04:02;100969.00;;;7.80;86.93
28448;BME280;15675;52.870;-1.416;2024-02-26T12:06:28;100964.31;;;8.06;88.38
28448;BME280;15675;52.870;-1.416;2024-02-26T12:08:55;101014.09;;;7.12;88.97
28448;BME280;15675;52.870;-1.416;2024-02-26T12:11:21;100987.97;;;7.38;91.93
28448;BME280;15675;52.870;-1.416;2024-02-26T12:13:47;100973.13;;;7.70;92.80
28448;BME280;15675;52.870;-1.416;2024-02-26T12:16:37;100975.84;;;7.78;92.22
28448;BME280;15675;52.870;-1.416;2024-02-26T12:19:07;100984.84;;;7.99;90.36
28448;BME280;15675;52.870;-1.416;2024-02-26T12:21:37;100983.94;;;7.97;88.58
28448;BME280;15675;52.870;-1.416;2024-02-26T12:24:10;100974.81;;;8.16;86.66
28448;BME280;15675;52.870;-1.416;2024-02-26T12:26:37;100971.56;;;8.27;86.32
28448;BME280;15675;52.870;-1.416;2024-02-26T12:29:02;100961.59;;;8.48;84.38
28448;BME280;15675;52.870;-1.416;2024-02-26T12:31:28;100985.50;;;8.36;83.69
28448;BME280;15675;52.870;-1.416;2024-02-26T12:33:54;101001.03;;;7.88;84.53
28448;BME280;15675;52.870;-1.416;2024-02-26T12:36:21;101007.63;;;8.18;85.77
28448;BME280;15675;52.870;-1.416;2024-02-26T12:38:50;100995.91;;;8.39;85.28
28448;BME280;15675;52.870;-1.416;2024-02-26T12:41:16;100995.50;;;7.70;86.54
28448;BME280;15675;52.870;-1.416;2024-02-26T12:43:42;101020.22;;;8.00;87.38